Time;durP1;ratioP1;P1;durP2;ratioP2;P2;SDS_P1;SDS_P2;PMS_P1;PMS_P2;Temp;Humidity;BMP_temperature;BMP_pressure;BME280_temperature;BME280_humidity;BME280_pressure;Samples;Min_cycle;Max_cycle;Signal;HPM_P1;HPM_P2
2021/08/06 00:01:16;;;;;;;1.77;1.23;;;16.30;89.20;;;;;;5009749;28;20042;-63
2021/08/06 00:03:42;;;;;;;1.10;1.00;;;16.30;89.10;;;;;;5009822;28;20049;-63
2021/08/06 00:06:08;;;;;;;1.02;1.02;;;16.20;89.20;;;;;;5007081;28;20045;-63
2021/08/06 00:08:35;;;;;;;1.40;1.10;;;16.20;89.40;;;;;;5007686;28;20109;-63
2021/08/06 00:11:01;;;;;;;1.02;1.00;;;16.20;89.40;;;;;;5005224;28;20033;-63
2021/08/06 00:13:27;;;;;;;1.20;1.10;;;16.20;89.40;;;;;;5006761;28;20030;-63
2021/08/06 00:15:53;;;;;;;1.58;1.30;;;16.20;89.30;;;;;;5007859;28;20441;-63
2021/08/06 00:18:19;;;;;;;2.20;1.30;;;16.20;89.40;;;;;;5008679;28;20037;-63
2021/08/06 00:20:45;;;;;;;1.73;1.42;;;16.20;89.20;;;;;;5014225;28;20705;-63
2021/08/06 00:23:11;;;;;;;1.10;0.98;;;16.20;89.20;;;;;;5022323;28;20076;-63
2021/08/06 00:25:37;;;;;;;2.03;1.13;;;16.30;89.10;;;;;;5009200;28;20034;-63
2021/08/06 00:28:03;;;;;;;1.40;1.30;;;16.30;89.30;;;;;;5009407;28;20053;-64
2021/08/06 00:30:29;;;;;;;1.17;1.17;;;16.20;89.00;;;;;;5010347;28;20064;-63
2021/08/06 00:32:55;;;;;;;1.30;1.20;;;16.20;88.90;;;;;;5010656;28;20100;-63
2021/08/06 00:35:21;;;;;;;1.85;1.38;;;16.20;88.90;;;;;;5010916;28;20594;-63
2021/08/06 00:37:47;;;;;;;1.17;1.08;;;16.20;88.90;;;;;;5003220;28;20105;-63
2021/08/06 00:40:13;;;;;;;4.30;1.38;;;16.20;88.90;;;;;;5006915;28;20058;-63
2021/08/06 00:42:38;;;;;;;1.30;1.20;;;16.20;89.60;;;;;;5013551;28;20475;-63
2021/08/06 00:45:06;;;;;;;2.97;1.30;;;16.10;89.50;;;;;;5010288;28;20030;-63
2021/08/06 00:47:33;;;;;;;2.70;1.40;;;16.10;89.90;;;;;;5007509;28;20037;-64
2021/08/06 00:50:00;;;;;;;1.33;1.08;;;16.20;89.50;;;;;;5010583;28;20119;-63
2021/08/06 00:52:25;;;;;;;2.58;1.20;;;16.10;89.40;;;;;;5010381;28;20035;-63
2021/08/06 00:54:51;;;;;;;1.05;1.05;;;16.10;89.10;;;;;;5015920;28;20040;-63
2021/08/06 00:57:17;;;;;;;2.00;1.05;;;16.10;89.00;;;;;;5014500;28;20030;-63
2021/08/06 00:59:43;;;;;;;1.20;1.10;;;16.10;89.00;;;;;;5003359;28;20038;-63
2021/08/06 01:02:19;;;;;;;1.60;1.05;;;16.00;89.00;;;;;;5014456;28;20038;-64
2021/08/06 01:05:09;;;;;;;1.48;1.30;;;16.00;89.10;;;;;;5035476;22;20504;-63
2021/08/06 01:07:53;;;;;;;1.08;1.08;;;16.00;88.70;;;;;;5027877;28;20426;-63
2021/08/06 01:10:26;;;;;;;1.35;1.25;;;16.00;88.60;;;;;;5038869;28;20021;-63
2021/08/06 01:12:59;;;;;;;9.38;2.22;;;16.00;88.40;;;;;;5036687;28;20025;-63
2021/08/06 01:15:26;;;;;;;2.33;1.00;;;15.90;88.50;;;;;;5034266;28;20117;-63
2021/08/06 01:17:53;;;;;;;1.20;1.10;;;15.90;88.50;;;;;;5041966;28;20021;-63
2021/08/06 01:20:38;;;;;;;1.20;1.10;;;15.90;88.30;;;;;;5040793;28;20060;-63
2021/08/06 01:23:17;;;;;;;1.10;1.00;;;15.90;88.50;;;;;;5037736;28;20105;-63
2021/08/06 01:25:49;;;;;;;1.20;1.10;;;15.80;88.40;;;;;;5037417;28;20354;-63
2021/08/06 01:28:31;;;;;;;0.90;0.90;;;15.80;88.30;;;;;;5039404;28;20025;-63
2021/08/06 01:30:57;;;;;;;1.15;1.10;;;15.70;88.30;;;;;;5034002;28;20037;-63
2021/08/06 01:33:22;;;;;;;3.65;1.10;;;15.70;88.20;;;;;;5038601;28;20036;-63
2021/08/06 01:35:49;;;;;;;1.20;1.10;;;15.70;88.20;;;;;;5013342;28;20060;-63
2021/08/06 01:38:16;;;;;;;1.00;1.00;;;15.70;88.10;;;;;;5034483;28;20033;-63
2021/08/06 01:40:47;;;;;;;0.85;0.85;;;15.70;88.00;;;;;;5027997;28;20033;-63
2021/08/06 01:43:28;;;;;;;3.33;1.45;;;15.60;88.10;;;;;;5033934;28;20646;-63
2021/08/06 01:46:03;;;;;;;5.75;1.40;;;15.60;88.00;;;;;;5005317;28;20053;-63
2021/08/06 01:48:36;;;;;;;1.95;1.05;;;15.60;88.20;;;;;;5014402;28;20845;-63
2021/08/06 01:51:05;;;;;;;1.30;0.95;;;15.50;88.30;;;;;;5036259;28;20065;-63
2021/08/06 01:53:34;;;;;;;1.48;1.38;;;15.50;88.30;;;;;;5039180;28;20064;-63
2021/08/06 01:56:05;;;;;;;1.33;1.10;;;15.50;88.20;;;;;;5041960;28;20025;-63
2021/08/06 01:58:34;;;;;;;1.27;1.17;;;15.40;89.30;;;;;;5034998;28;20048;-63
2021/08/06 02:00:59;;;;;;;;;;;15.40;88.30;;;;;;5032294;28;20535;-63
2021/08/06 02:03:25;;;;;;;3.45;0.93;;;15.40;88.10;;;;;;5021739;28;19953;-63
2021/08/06 02:05:51;;;;;;;1.20;1.10;;;15.40;87.90;;;;;;5033229;28;20033;-63
2021/08/06 02:08:19;;;;;;;2.10;1.05;;;15.40;87.70;;;;;;5034420;28;20029;-63
2021/08/06 02:10:45;;;;;;;1.10;1.00;;;15.20;87.90;;;;;;5034960;28;20028;-63
2021/08/06 02:13:11;;;;;;;1.40;1.30;;;15.20;88.40;;;;;;5034977;28;20064;-64
2021/08/06 02:15:41;;;;;;;1.15;1.00;;;15.00;88.70;;;;;;5032952;28;20018;-63
2021/08/06 02:18:10;;;;;;;1.20;1.00;;;14.90;89.10;;;;;;5025510;28;20383;-63
2021/08/06 02:20:36;;;;;;;1.73;1.17;;;15.00;88.90;;;;;;5044243;28;20035;-63
2021/08/06 02:23:06;;;;;;;3.65;1.27;;;15.00;88.70;;;;;;5034417;28;20212;-63
2021/08/06 02:25:32;;;;;;;3.42;1.02;;;15.00;88.70;;;;;;5037941;28;20607;-63
2021/08/06 02:27:59;;;;;;;1.25;1.10;;;15.00;88.80;;;;;;5034573;28;20025;-63
2021/08/06 02:30:29;;;;;;;1.10;1.00;;;14.90;88.70;;;;;;5041886;28;20032;-63
2021/08/06 02:32:55;;;;;;;1.48;1.02;;;14.90;88.80;;;;;;5032254;28;20433;-63
2021/08/06 02:35:21;;;;;;;0.90;0.90;;;14.70;89.10;;;;;;5029480;28;20629;-63
2021/08/06 02:37:49;;;;;;;1.50;1.13;;;14.80;89.10;;;;;;5034474;28;20034;-63
2021/08/06 02:40:14;;;;;;;1.15;1.05;;;14.70;89.10;;;;;;5038955;28;20024;-63
2021/08/06 02:42:41;;;;;;;2.85;1.20;;;14.70;89.30;;;;;;5032408;28;20029;-63
2021/08/06 02:45:07;;;;;;;3.00;1.33;;;14.60;89.40;;;;;;5039315;28;20029;-63
2021/08/06 02:47:33;;;;;;;2.95;1.42;;;14.60;89.30;;;;;;5032003;28;20040;-62
2021/08/06 02:49:58;;;;;;;1.33;1.13;;;14.70;89.20;;;;;;5030103;28;20034;-63
2021/08/06 02:52:24;;;;;;;1.20;1.10;;;14.70;89.30;;;;;;5031520;28;20193;-63
2021/08/06 02:54:50;;;;;;;2.10;1.25;;;14.50;89.40;;;;;;5032699;28;20072;-63
2021/08/06 02:57:15;;;;;;;3.15;1.30;;;14.50;89.60;;;;;;5032821;28;20036;-62
2021/08/06 02:59:41;;;;;;;1.40;1.30;;;14.50;90.40;;;;;;5038596;28;20449;-63
2021/08/06 03:02:07;;;;;;;1.17;1.02;;;14.50;90.00;;;;;;5038947;28;20043;-63
2021/08/06 03:04:32;;;;;;;1.52;1.27;;;14.40;90.10;;;;;;5028898;28;20049;-63
2021/08/06 03:06:58;;;;;;;6.55;1.48;;;14.40;90.10;;;;;;5030633;28;20152;-63
2021/08/06 03:09:24;;;;;;;2.55;1.50;;;14.40;90.20;;;;;;5032887;28;20026;-62
2021/08/06 03:11:50;;;;;;;2.78;1.27;;;14.40;90.60;;;;;;5018556;28;20109;-63
2021/08/06 03:14:15;;;;;;;1.20;1.10;;;14.40;90.50;;;;;;5034120;28;20175;-62
2021/08/06 03:16:41;;;;;;;1.52;1.02;;;14.40;90.30;;;;;;5036456;28;20647;-63
2021/08/06 03:19:06;;;;;;;1.17;1.00;;;14.50;90.10;;;;;;5032255;28;20029;-63
2021/08/06 03:21:32;;;;;;;1.98;1.17;;;14.50;89.80;;;;;;5030653;28;20710;-63
2021/08/06 03:23:57;;;;;;;3.08;1.15;;;14.50;90.00;;;;;;5032583;28;20030;-63
2021/08/06 03:26:23;;;;;;;1.25;0.98;;;14.40;90.00;;;;;;5043009;28;20030;-63
2021/08/06 03:28:49;;;;;;;1.63;1.23;;;14.50;90.00;;;;;;5033038;28;20029;-63
2021/08/06 03:31:15;;;;;;;2.00;1.33;;;14.50;90.00;;;;;;5019091;28;20044;-63
2021/08/06 03:33:40;;;;;;;1.98;1.30;;;14.50;90.00;;;;;;5032762;28;20037;-63
2021/08/06 03:36:07;;;;;;;1.30;1.20;;;14.50;90.30;;;;;;5019551;28;20036;-63
2021/08/06 03:38:33;;;;;;;1.55;1.40;;;14.50;90.40;;;;;;5030538;28;20033;-63
2021/08/06 03:40:58;;;;;;;1.95;1.40;;;14.40;90.60;;;;;;5034838;28;20033;-66
2021/08/06 03:43:24;;;;;;;3.85;1.48;;;14.40;90.50;;;;;;5031274;28;20373;-62
2021/08/06 03:45:50;;;;;;;2.22;1.58;;;14.50;90.40;;;;;;5043070;28;20346;-63
2021/08/06 03:48:15;;;;;;;1.80;1.30;;;14.40;90.30;;;;;;5030314;28;20065;-63
2021/08/06 03:50:42;;;;;;;2.40;1.92;;;14.40;90.20;;;;;;5030408;28;20105;-63
2021/08/06 03:53:08;;;;;;;1.65;1.35;;;14.40;90.20;;;;;;5037066;28;20017;-63
2021/08/06 03:55:33;;;;;;;4.03;1.45;;;14.40;90.30;;;;;;5030361;28;20212;-63
2021/08/06 03:57:59;;;;;;;1.58;1.45;;;14.30;90.60;;;;;;5037575;28;20035;-63
2021/08/06 04:00:27;;;;;;;3.42;1.42;;;14.30;90.80;;;;;;5029831;28;20056;-63
2021/08/06 04:02:53;;;;;;;2.40;1.40;;;14.30;91.00;;;;;;5031224;28;20029;-64
2021/08/06 04:05:19;;;;;;;2.40;1.70;;;14.20;91.20;;;;;;5025703;28;20025;-63
2021/08/06 04:07:46;;;;;;;2.20;1.38;;;14.20;91.30;;;;;;5015454;28;20055;-62
2021/08/06 04:10:15;;;;;;;2.10;1.25;;;14.30;91.30;;;;;;5016525;28;20112;-63
2021/08/06 04:12:40;;;;;;;3.15;1.30;;;14.40;91.30;;;;;;5033683;28;20099;-62
2021/08/06 04:15:07;;;;;;;1.83;1.15;;;14.40;90.90;;;;;;5032234;28;20405;-63
2021/08/06 04:17:33;;;;;;;2.92;1.38;;;14.50;90.80;;;;;;5031386;28;20377;-62
2021/08/06 04:19:59;;;;;;;1.80;1.20;;;14.50;90.70;;;;;;5030778;28;20033;-62
2021/08/06 04:22:25;;;;;;;1.73;1.40;;;14.50;90.70;;;;;;5032524;28;20025;-63
2021/08/06 04:24:50;;;;;;;1.80;1.40;;;14.50;90.80;;;;;;5031101;28;20084;-63
2021/08/06 04:27:16;;;;;;;1.42;1.33;;;14.60;90.80;;;;;;5022110;28;20041;-64
2021/08/06 04:29:42;;;;;;;1.63;1.30;;;14.60;91.10;;;;;;5023339;28;20112;-62
2021/08/06 04:32:07;;;;;;;1.60;1.50;;;14.70;90.90;;;;;;5035648;28;20490;-63
2021/08/06 04:34:33;;;;;;;3.38;1.55;;;14.70;90.90;;;;;;5036445;28;20469;-63
2021/08/06 04:36:58;;;;;;;2.30;1.77;;;14.80;90.70;;;;;;5021338;28;20043;-63
2021/08/06 04:39:24;;;;;;;1.35;1.25;;;14.80;90.70;;;;;;5035017;28;20056;-63
2021/08/06 04:41:50;;;;;;;1.30;1.20;;;14.90;90.60;;;;;;5040434;28;20034;-63
2021/08/06 04:44:17;;;;;;;1.73;1.48;;;14.90;90.60;;;;;;5034373;28;20428;-63
2021/08/06 04:46:43;;;;;;;1.60;1.50;;;14.90;90.80;;;;;;5034920;28;20025;-63
2021/08/06 04:49:09;;;;;;;2.45;1.27;;;14.90;91.00;;;;;;5036087;28;20104;-63
2021/08/06 04:51:35;;;;;;;1.98;1.30;;;15.00;91.00;;;;;;5041854;28;20028;-63
2021/08/06 04:54:00;;;;;;;1.80;1.60;;;15.00;91.10;;;;;;5035968;28;20029;-63
2021/08/06 04:56:26;;;;;;;6.32;2.10;;;15.00;90.90;;;;;;5033907;28;20099;-63
2021/08/06 04:58:52;;;;;;;1.33;1.23;;;15.00;91.00;;;;;;5037754;28;20049;-62
2021/08/06 05:01:17;;;;;;;1.70;1.17;;;15.00;91.00;;;;;;5034325;28;20124;-63
2021/08/06 05:03:43;;;;;;;1.52;1.20;;;15.10;91.20;;;;;;5033422;28;20054;-63
2021/08/06 05:06:08;;;;;;;1.40;1.30;;;15.10;91.20;;;;;;5035812;28;20100;-63
2021/08/06 05:08:34;;;;;;;2.13;1.48;;;15.10;91.10;;;;;;5036106;28;20071;-63
2021/08/06 05:11:00;;;;;;;1.40;1.30;;;15.10;91.20;;;;;;5032235;28;20485;-63
2021/08/06 05:13:26;;;;;;;1.58;1.48;;;15.20;91.20;;;;;;5034859;28;20041;-63
2021/08/06 05:15:52;;;;;;;3.47;1.23;;;15.10;91.20;;;;;;5033359;28;20037;-63
2021/08/06 05:18:18;;;;;;;4.30;1.38;;;15.20;91.20;;;;;;5039161;28;20385;-63
2021/08/06 05:20:44;;;;;;;2.33;1.52;;;15.20;91.00;;;;;;5035525;28;20030;-63
2021/08/06 05:23:10;;;;;;;1.40;1.23;;;15.20;91.50;;;;;;5034313;28;20029;-63
2021/08/06 05:25:35;;;;;;;0.93;0.93;;;15.30;91.20;;;;;;5032977;28;20100;-63
2021/08/06 05:28:01;;;;;;;2.55;1.25;;;15.30;91.20;;;;;;5031774;28;20030;-62
2021/08/06 05:30:27;;;;;;;1.73;1.38;;;15.30;91.20;;;;;;5033523;28;20025;-63
2021/08/06 05:32:53;;;;;;;1.30;1.20;;;15.30;91.30;;;;;;5032600;28;20030;-63
2021/08/06 05:35:18;;;;;;;1.40;1.30;;;15.30;91.20;;;;;;5033217;28;20033;-63
2021/08/06 05:37:44;;;;;;;1.25;1.15;;;15.40;91.20;;;;;;5028289;28;20049;-63
2021/08/06 05:40:10;;;;;;;1.58;1.15;;;15.40;91.10;;;;;;5031627;28;20511;-63
2021/08/06 05:42:36;;;;;;;1.52;1.30;;;15.50;91.30;;;;;;4987332;28;20370;-63
2021/08/06 05:45:03;;;;;;;2.35;1.33;;;15.50;91.20;;;;;;5029600;28;20500;-64
2021/08/06 05:47:40;;;;;;;1.88;1.38;;;15.60;91.30;;;;;;5034562;28;20583;-63
2021/08/06 05:50:06;;;;;;;1.77;1.60;;;15.60;91.20;;;;;;5039894;28;20154;-63
2021/08/06 05:52:31;;;;;;;1.95;1.45;;;15.70;91.60;;;;;;5039315;28;20459;-63
2021/08/06 05:54:57;;;;;;;2.08;1.27;;;15.80;91.50;;;;;;5038609;28;20112;-63
2021/08/06 05:57:22;;;;;;;1.40;1.30;;;15.80;91.20;;;;;;5017443;28;20021;-63
2021/08/06 05:59:48;;;;;;;1.35;1.25;;;15.80;91.30;;;;;;5032964;28;20068;-62
2021/08/06 06:02:13;;;;;;;1.70;1.15;;;15.90;91.10;;;;;;5032094;28;20034;-62
2021/08/06 06:04:39;;;;;;;1.88;1.52;;;16.00;91.00;;;;;;5031918;28;20442;-63
2021/08/06 06:07:04;;;;;;;4.10;1.60;;;16.10;91.20;;;;;;5034404;28;20025;-63
2021/08/06 06:09:30;;;;;;;1.50;1.30;;;16.10;90.30;;;;;;5032661;28;20053;-63
2021/08/06 06:11:56;;;;;;;1.52;1.42;;;16.10;90.60;;;;;;5032596;28;20029;-63
2021/08/06 06:14:21;;;;;;;1.15;1.05;;;16.10;90.40;;;;;;5015921;28;20029;-63
2021/08/06 06:16:47;;;;;;;3.95;1.58;;;16.10;90.40;;;;;;5031873;28;20030;-62
2021/08/06 06:19:13;;;;;;;2.88;1.60;;;16.10;90.30;;;;;;5038213;28;20056;-63
2021/08/06 06:21:38;;;;;;;1.75;1.50;;;16.10;90.50;;;;;;5028417;28;20450;-63
2021/08/06 06:24:04;;;;;;;2.33;1.60;;;16.10;90.30;;;;;;5030946;28;20018;-63
2021/08/06 06:26:30;;;;;;;8.60;2.00;;;16.10;90.10;;;;;;5032554;28;20088;-63
2021/08/06 06:28:56;;;;;;;1.80;1.52;;;16.10;90.10;;;;;;5038135;28;20466;-63
2021/08/06 06:31:21;;;;;;;1.58;1.45;;;16.10;90.40;;;;;;5032715;28;20034;-63
2021/08/06 06:33:47;;;;;;;1.55;1.33;;;16.10;90.20;;;;;;5032756;28;20033;-63
2021/08/06 06:36:13;;;;;;;1.73;1.45;;;16.10;90.30;;;;;;5032225;28;20044;-63
2021/08/06 06:38:38;;;;;;;1.73;1.30;;;16.10;90.40;;;;;;5033080;28;20361;-63
2021/08/06 06:41:04;;;;;;;1.63;1.50;;;16.10;90.30;;;;;;5032888;28;20373;-63
2021/08/06 06:43:29;;;;;;;1.30;1.20;;;16.10;90.40;;;;;;5033020;28;20044;-63
2021/08/06 06:45:55;;;;;;;1.88;1.30;;;16.10;90.50;;;;;;5032798;28;20103;-65
2021/08/06 06:48:24;;;;;;;4.82;1.50;;;16.10;90.40;;;;;;5021930;28;20024;-65
2021/08/06 06:50:50;;;;;;;1.42;1.33;;;16.10;90.00;;;;;;5027420;28;20014;-64
2021/08/06 06:53:16;;;;;;;1.20;1.10;;;16.00;90.20;;;;;;5031917;28;20533;-65
2021/08/06 06:55:42;;;;;;;1.42;1.33;;;16.00;90.20;;;;;;5023844;28;20029;-65
2021/08/06 06:58:07;;;;;;;1.40;1.30;;;16.00;90.00;;;;;;5024748;28;20039;-64
2021/08/06 07:00:33;;;;;;;1.40;1.30;;;16.00;90.50;;;;;;5036639;28;20039;-64
2021/08/06 07:03:00;;;;;;;1.55;1.40;;;16.00;90.90;;;;;;5034950;28;20064;-64
2021/08/06 07:05:26;;;;;;;1.50;1.40;;;15.90;90.80;;;;;;5039553;28;20033;-64
2021/08/06 07:07:52;;;;;;;1.50;1.40;;;15.90;90.90;;;;;;5032485;28;20048;-64
2021/08/06 07:10:18;;;;;;;1.60;1.48;;;15.90;91.10;;;;;;5049832;28;20776;-64
2021/08/06 07:12:44;;;;;;;1.13;1.13;;;16.00;91.00;;;;;;5036011;28;20029;-64
2021/08/06 07:15:11;;;;;;;1.48;1.20;;;16.00;90.90;;;;;;5041174;28;20026;-64
2021/08/06 07:17:40;;;;;;;1.08;1.00;;;16.00;90.70;;;;;;5038168;28;20076;-64
2021/08/06 07:20:08;;;;;;;2.38;1.50;;;16.00;90.90;;;;;;5031604;28;20067;-64
2021/08/06 07:22:34;;;;;;;1.48;1.38;;;16.10;91.10;;;;;;5036304;28;20028;-64
2021/08/06 07:25:00;;;;;;;1.80;1.70;;;16.00;90.90;;;;;;5042135;28;20401;-64
2021/08/06 07:27:25;;;;;;;1.80;1.50;;;16.10;90.90;;;;;;5034248;28;20033;-64
2021/08/06 07:29:51;;;;;;;1.33;1.30;;;16.10;91.00;;;;;;5030451;28;20093;-64
2021/08/06 07:32:17;;;;;;;1.50;1.40;;;16.10;91.20;;;;;;5040575;28;20033;-64
2021/08/06 07:34:43;;;;;;;1.60;1.48;;;16.10;91.10;;;;;;5033537;28;20028;-64
2021/08/06 07:37:09;;;;;;;1.67;1.38;;;16.10;91.00;;;;;;5043222;28;20059;-64
2021/08/06 07:39:35;;;;;;;1.60;1.50;;;16.20;91.10;;;;;;5024185;28;20500;-65
2021/08/06 07:42:00;;;;;;;1.58;1.38;;;16.30;91.50;;;;;;5037721;28;20018;-64
2021/08/06 07:44:26;;;;;;;1.42;1.33;;;16.30;91.00;;;;;;5034087;28;20385;-65
2021/08/06 07:46:52;;;;;;;1.85;1.42;;;16.40;91.10;;;;;;5039742;28;20032;-64
2021/08/06 07:49:17;;;;;;;1.50;1.20;;;16.40;91.40;;;;;;5031249;28;20168;-65
2021/08/06 07:51:43;;;;;;;2.08;1.50;;;16.50;90.90;;;;;;5015724;28;20025;-64
2021/08/06 07:54:09;;;;;;;1.35;1.20;;;16.50;90.60;;;;;;5019456;28;20362;-64
2021/08/06 07:56:35;;;;;;;1.48;1.35;;;16.50;90.70;;;;;;5031579;28;20052;-64
2021/08/06 07:59:00;;;;;;;1.58;1.30;;;16.50;90.80;;;;;;5017814;28;20040;-64
2021/08/06 08:01:26;;;;;;;1.48;1.35;;;16.60;90.70;;;;;;5014147;28;20050;-64
2021/08/06 08:03:52;;;;;;;1.50;1.40;;;16.70;91.10;;;;;;5018618;28;20386;-65
2021/08/06 08:06:17;;;;;;;1.27;1.17;;;16.80;90.80;;;;;;5024208;28;20026;-65
2021/08/06 08:08:43;;;;;;;1.30;1.20;;;16.90;90.60;;;;;;5024005;28;20026;-64
2021/08/06 08:11:09;;;;;;;2.03;1.40;;;17.00;90.60;;;;;;5017883;28;20026;-64
2021/08/06 08:13:35;;;;;;;1.55;1.23;;;17.20;90.50;;;;;;5017996;28;20021;-64
2021/08/06 08:16:02;;;;;;;1.40;1.30;;;17.30;90.10;;;;;;5029345;28;20496;-65
2021/08/06 08:18:28;;;;;;;2.10;1.38;;;17.40;89.50;;;;;;5018985;28;20033;-65
2021/08/06 08:20:53;;;;;;;1.58;1.33;;;17.60;90.30;;;;;;5011651;28;20056;-64
2021/08/06 08:23:19;;;;;;;1.38;1.27;;;17.70;89.40;;;;;;5026691;28;20040;-64
2021/08/06 08:25:49;;;;;;;1.30;1.20;;;17.80;88.90;;;;;;5028110;28;20025;-66
2021/08/06 08:28:15;;;;;;;1.33;1.23;;;17.90;85.80;;;;;;5018210;28;20531;-65
2021/08/06 08:30:41;;;;;;;2.03;1.48;;;18.00;86.10;;;;;;5029359;28;20061;-65
2021/08/06 08:33:06;;;;;;;1.45;1.27;;;18.00;86.70;;;;;;5025938;28;20405;-64
2021/08/06 08:35:34;;;;;;;1.50;1.40;;;18.10;85.60;;;;;;5029731;28;20719;-64
2021/08/06 08:38:00;;;;;;;2.10;1.00;;;18.20;86.40;;;;;;5023955;28;20112;-64
2021/08/06 08:40:26;;;;;;;1.10;1.10;;;18.20;85.50;;;;;;5025944;28;20097;-65
2021/08/06 08:42:53;;;;;;;1.30;1.20;;;18.40;85.50;;;;;;5025893;28;20030;-64
2021/08/06 08:45:18;;;;;;;1.60;1.10;;;18.60;85.40;;;;;;5021445;28;20053;-65
2021/08/06 08:47:47;;;;;;;2.47;1.10;;;18.70;83.10;;;;;;5028605;28;20037;-65
2021/08/06 08:50:14;;;;;;;1.33;1.00;;;18.80;82.50;;;;;;5027227;28;20025;-64
2021/08/06 08:52:40;;;;;;;1.23;1.13;;;18.90;81.90;;;;;;5027056;28;20034;-65
2021/08/06 08:55:07;;;;;;;1.45;1.35;;;19.00;84.00;;;;;;5029592;28;20292;-65
2021/08/06 08:57:33;;;;;;;2.50;1.02;;;19.00;83.60;;;;;;5031625;28;20029;-65
2021/08/06 08:59:58;;;;;;;0.90;0.90;;;18.90;82.50;;;;;;5028738;28;20444;-65
2021/08/06 09:02:24;;;;;;;1.38;1.20;;;18.80;82.50;;;;;;5032290;28;20492;-65
2021/08/06 09:05:17;;;;;;;1.10;1.00;;;18.70;82.70;;;;;;5034026;28;20041;-65
2021/08/06 09:07:44;;;;;;;1.85;1.17;;;18.60;82.10;;;;;;5012941;28;20050;-64
2021/08/06 09:10:18;;;;;;;2.15;1.20;;;18.70;83.10;;;;;;5037097;28;20026;-65
2021/08/06 09:13:01;;;;;;;1.38;1.27;;;18.70;81.80;;;;;;5029735;28;20021;-65
2021/08/06 09:15:48;;;;;;;1.35;1.20;;;18.80;81.10;;;;;;5031752;28;20055;-64
2021/08/06 09:18:32;;;;;;;1.63;1.00;;;18.80;81.90;;;;;;5026446;28;20029;-65
2021/08/06 09:21:11;;;;;;;2.20;2.10;;;19.00;80.10;;;;;;5034017;28;20043;-65
2021/08/06 09:24:06;;;;;;;1.23;1.10;;;19.10;78.50;;;;;;5026682;28;20045;-65
2021/08/06 09:26:37;;;;;;;1.20;1.10;;;19.30;77.50;;;;;;5009485;28;20033;-65
2021/08/06 09:29:18;;;;;;;1.42;1.25;;;19.40;79.40;;;;;;5035499;28;20028;-65
2021/08/06 09:32:00;;;;;;;1.20;1.10;;;19.50;77.90;;;;;;5007676;28;20038;-65
2021/08/06 09:34:37;;;;;;;1.63;1.30;;;19.60;76.00;;;;;;5032235;28;20029;-66
2021/08/06 09:37:07;;;;;;;2.05;1.23;;;19.50;74.00;;;;;;5029583;28;20084;-66
2021/08/06 09:39:48;;;;;;;1.33;1.10;;;19.30;75.20;;;;;;5032780;28;20030;-64
2021/08/06 09:42:35;;;;;;;1.50;1.33;;;19.40;75.60;;;;;;5034136;28;20059;-66
2021/08/06 09:45:07;;;;;;;4.32;1.38;;;19.40;75.50;;;;;;5030307;28;20117;-65
2021/08/06 09:47:34;;;;;;;1.27;1.17;;;19.40;75.70;;;;;;5025267;28;20030;-65
2021/08/06 09:50:03;;;;;;;1.25;1.15;;;19.40;76.80;;;;;;5028924;28;20112;-65
2021/08/06 09:52:35;;;;;;;1.00;1.00;;;19.40;76.60;;;;;;5013091;28;20363;-65
2021/08/06 09:55:01;;;;;;;2.00;1.58;;;19.40;74.60;;;;;;5044042;28;20047;-65
2021/08/06 09:57:27;;;;;;;2.03;1.75;;;19.40;73.20;;;;;;5031915;28;20116;-65
2021/08/06 09:59:55;;;;;;;1.45;1.20;;;19.40;72.90;;;;;;5030644;28;20442;-65
2021/08/06 10:02:22;;;;;;;1.42;1.20;;;19.40;74.80;;;;;;5028558;28;20068;-65
2021/08/06 10:05:06;;;;;;;1.30;1.10;;;19.50;76.60;;;;;;5029377;28;20044;-65
2021/08/06 10:07:36;;;;;;;1.50;1.20;;;19.60;75.30;;;;;;5030480;28;20025;-65
2021/08/06 10:10:08;;;;;;;2.38;0.90;;;19.70;72.80;;;;;;5031298;28;20377;-65
2021/08/06 10:12:34;;;;;;;1.38;1.10;;;19.90;71.10;;;;;;5016201;28;20354;-65
2021/08/06 10:15:00;;;;;;;1.02;1.00;;;20.00;73.20;;;;;;5030542;28;20029;-65
2021/08/06 10:17:26;;;;;;;4.70;1.17;;;20.10;73.60;;;;;;5017783;28;20373;-65
2021/08/06 10:19:52;;;;;;;2.13;1.20;;;20.30;71.70;;;;;;5031236;28;20033;-65
2021/08/06 10:22:18;;;;;;;1.00;0.98;;;20.40;72.40;;;;;;5034179;28;20056;-65
2021/08/06 10:24:48;;;;;;;1.42;1.13;;;20.40;67.00;;;;;;5027233;28;20033;-65
2021/08/06 10:27:18;;;;;;;1.70;1.27;;;20.40;70.10;;;;;;5032518;28;20112;-65
2021/08/06 10:30:07;;;;;;;1.63;1.02;;;20.50;68.90;;;;;;5032900;28;20021;-66
2021/08/06 10:32:33;;;;;;;1.33;1.20;;;20.50;69.80;;;;;;5033124;28;20033;-65
2021/08/06 10:35:02;;;;;;;1.00;0.90;;;20.60;70.80;;;;;;5032468;28;20569;-65
2021/08/06 10:37:56;;;;;;;1.13;1.10;;;20.70;71.40;;;;;;5017737;28;20026;-65
2021/08/06 10:40:34;;;;;;;1.48;1.20;;;20.80;69.10;;;;;;5027774;28;20218;-65
2021/08/06 10:43:09;;;;;;;4.20;1.30;;;20.70;65.70;;;;;;5032502;28;20033;-65
2021/08/06 10:45:47;;;;;;;2.22;1.30;;;20.70;68.90;;;;;;5039307;28;20026;-65
2021/08/06 10:48:31;;;;;;;3.25;1.20;;;20.90;69.50;;;;;;5030584;28;20056;-65
2021/08/06 10:51:18;;;;;;;1.67;0.98;;;21.00;66.30;;;;;;5022017;28;20040;-65
2021/08/06 10:53:46;;;;;;;2.87;1.07;;;21.00;64.50;;;;;;5021752;28;20033;-65
2021/08/06 10:56:17;;;;;;;0.80;0.80;;;21.00;64.50;;;;;;5030863;28;20052;-65
2021/08/06 10:58:49;;;;;;;0.98;0.82;;;21.00;63.00;;;;;;5033697;28;20029;-65
2021/08/06 11:01:33;;;;;;;0.98;0.95;;;20.90;65.10;;;;;;5029590;28;20041;-65
2021/08/06 11:04:00;;;;;;;1.52;1.05;;;21.00;65.40;;;;;;5036324;28;20037;-65
2021/08/06 11:06:41;;;;;;;0.88;0.82;;;21.00;63.60;;;;;;5032290;28;20036;-65
2021/08/06 11:09:08;;;;;;;2.47;1.10;;;21.00;64.60;;;;;;5027387;28;20028;-65
2021/08/06 11:11:43;;;;;;;1.40;0.80;;;21.10;63.20;;;;;;5035491;28;20025;-66
2021/08/06 11:14:10;;;;;;;2.45;1.00;;;21.00;62.60;;;;;;5031710;28;20355;-65
2021/08/06 11:16:56;;;;;;;1.55;1.00;;;21.00;63.00;;;;;;5027512;28;20466;-64
2021/08/06 11:19:28;;;;;;;1.90;1.10;;;21.10;63.60;;;;;;5031835;28;20485;-65
2021/08/06 11:21:55;;;;;;;1.58;0.98;;;21.10;63.00;;;;;;5032411;28;20036;-65
2021/08/06 11:24:20;;;;;;;2.17;1.15;;;21.10;62.10;;;;;;5031760;28;20037;-65
2021/08/06 11:26:48;;;;;;;1.30;0.90;;;21.10;63.40;;;;;;5032402;28;20029;-65
2021/08/06 11:29:14;;;;;;;1.10;1.00;;;21.10;64.20;;;;;;5029494;28;20021;-64
2021/08/06 11:31:40;;;;;;;1.08;0.70;;;21.10;60.60;;;;;;5029479;28;20029;-65
2021/08/06 11:34:06;;;;;;;3.90;1.00;;;21.10;62.10;;;;;;5044495;28;20289;-65
2021/08/06 11:36:34;;;;;;;2.42;1.35;;;21.10;61.90;;;;;;5038281;28;20031;-64
2021/08/06 11:39:15;;;;;;;;;;;21.20;62.80;;;;;;5036463;28;20521;-65
2021/08/06 11:41:52;;;;;;;2.72;1.20;;;21.30;62.80;;;;;;5027092;28;20397;-65
2021/08/06 11:44:19;;;;;;;2.70;1.10;;;21.20;62.10;;;;;;5021234;28;20025;-65
2021/08/06 11:46:50;;;;;;;0.90;0.90;;;21.20;62.90;;;;;;5046484;28;20021;-65
2021/08/06 11:49:17;;;;;;;4.03;1.20;;;21.20;64.70;;;;;;5045015;28;20437;-65
2021/08/06 11:51:47;;;;;;;0.98;0.88;;;21.30;64.50;;;;;;5032066;28;20025;-65
2021/08/06 11:54:12;;;;;;;2.30;0.85;;;21.40;65.10;;;;;;5046602;28;20791;-65
2021/08/06 11:56:38;;;;;;;1.15;1.05;;;21.50;61.10;;;;;;5031153;28;20143;-64
2021/08/06 11:59:08;;;;;;;1.13;0.95;;;21.50;59.70;;;;;;5037021;28;20162;-65
2021/08/06 12:01:33;;;;;;;0.77;0.77;;;21.50;60.40;;;;;;5028315;28;20107;-65
2021/08/06 12:03:59;;;;;;;2.35;1.08;;;21.40;58.00;;;;;;5031302;28;20091;-65
2021/08/06 12:06:25;;;;;;;2.60;0.90;;;21.40;58.10;;;;;;5026083;28;20052;-65
2021/08/06 12:08:55;;;;;;;1.00;0.90;;;21.40;57.20;;;;;;5030138;28;20037;-65
2021/08/06 12:11:26;;;;;;;1.95;0.75;;;21.50;58.70;;;;;;5030478;28;20029;-64
2021/08/06 12:13:59;;;;;;;3.10;1.00;;;21.60;61.70;;;;;;5032289;28;20030;-65
2021/08/06 12:16:38;;;;;;;2.00;0.98;;;21.70;61.20;;;;;;5019168;28;20045;-65
2021/08/06 12:19:05;;;;;;;2.53;1.00;;;21.80;60.00;;;;;;5036948;28;20036;-64
2021/08/06 12:21:37;;;;;;;2.28;1.05;;;21.70;57.00;;;;;;5030532;28;20108;-65
2021/08/06 12:24:03;;;;;;;1.52;1.25;;;21.80;61.00;;;;;;5031320;28;20376;-65
2021/08/06 12:26:34;;;;;;;1.40;0.90;;;22.00;59.00;;;;;;5031175;28;20034;-65
2021/08/06 12:29:15;;;;;;;2.08;1.00;;;21.80;57.60;;;;;;5028530;28;20017;-65
2021/08/06 12:31:51;;;;;;;1.17;0.90;;;21.60;58.50;;;;;;5030186;28;20044;-64
2021/08/06 12:34:21;;;;;;;1.45;0.95;;;21.50;60.10;;;;;;5031280;28;20025;-64
2021/08/06 12:36:57;;;;;;;1.23;1.10;;;21.40;60.30;;;;;;5030904;28;20407;-65
2021/08/06 12:39:24;;;;;;;0.77;0.77;;;21.50;61.00;;;;;;5031259;28;20037;-66
2021/08/06 12:41:51;;;;;;;2.15;1.23;;;21.60;60.70;;;;;;5030304;28;20032;-65
2021/08/06 12:44:25;;;;;;;1.10;0.90;;;21.60;59.30;;;;;;5030681;28;20541;-65
2021/08/06 12:47:12;;;;;;;2.30;1.00;;;21.60;60.00;;;;;;5032779;28;20021;-66
2021/08/06 12:49:41;;;;;;;1.05;0.90;;;21.50;60.80;;;;;;5035086;28;20021;-65
2021/08/06 12:52:17;;;;;;;1.42;0.90;;;21.60;60.60;;;;;;5032855;28;20075;-65
2021/08/06 12:54:56;;;;;;;1.25;1.00;;;21.60;60.40;;;;;;5030092;28;20065;-65